sensor_id;sensor_type;location;lat;lon;timestamp;P1;durP1;ratioP1;P2;durP2;ratioP2
53751;SDS011;41095;53.090;6.692;2022-10-31T00:03:43;19.25;;;11.40;;
53751;SDS011;41095;53.090;6.692;2022-10-31T00:06:09;12.35;;;8.07;;
53751;SDS011;41095;53.090;6.692;2022-10-31T00:08:34;17.90;;;11.43;;
53751;SDS011;41095;53.090;6.692;2022-10-31T00:11:00;18.98;;;10.68;;
53751;SDS011;41095;53.090;6.692;2022-10-31T00:13:26;13.48;;;10.32;;
53751;SDS011;41095;53.090;6.692;2022-10-31T00:15:52;18.48;;;10.82;;
53751;SDS011;41095;53.090;6.692;2022-10-31T00:18:17;19.50;;;10.35;;
53751;SDS011;41095;53.090;6.692;2022-10-31T00:20:43;17.17;;;10.90;;
53751;SDS011;41095;53.090;6.692;2022-10-31T00:23:09;14.45;;;10.63;;
53751;SDS011;41095;53.090;6.692;2022-10-31T00:25:37;14.35;;;10.45;;
53751;SDS011;41095;53.090;6.692;2022-10-31T00:28:05;15.63;;;11.00;;
53751;SDS011;41095;53.090;6.692;2022-10-31T00:30:32;18.65;;;10.50;;
53751;SDS011;41095;53.090;6.692;2022-10-31T00:32:58;15.07;;;11.27;;
53751;SDS011;41095;53.090;6.692;2022-10-31T00:35:24;21.48;;;12.50;;
53751;SDS011;41095;53.090;6.692;2022-10-31T00:37:49;18.58;;;12.60;;
53751;SDS011;41095;53.090;6.692;2022-10-31T00:40:16;17.77;;;10.80;;
53751;SDS011;41095;53.090;6.692;2022-10-31T00:42:42;18.33;;;10.18;;
53751;SDS011;41095;53.090;6.692;2022-10-31T00:45:10;17.08;;;11.18;;
53751;SDS011;41095;53.090;6.692;2022-10-31T00:47:36;15.88;;;11.25;;
53751;SDS011;41095;53.090;6.692;2022-10-31T00:50:05;19.55;;;11.32;;
53751;SDS011;41095;53.090;6.692;2022-10-31T00:52:31;16.83;;;9.88;;
53751;SDS011;41095;53.090;6.692;2022-10-31T00:54:57;20.15;;;12.07;;
53751;SDS011;41095;53.090;6.692;2022-10-31T00:57:23;14.80;;;10.93;;
53751;SDS011;41095;53.090;6.692;2022-10-31T00:59:49;12.73;;;9.95;;
53751;SDS011;41095;53.090;6.692;2022-10-31T01:02:14;19.35;;;12.95;;
53751;SDS011;41095;53.090;6.692;2022-10-31T01:04:41;16.88;;;11.18;;
53751;SDS011;41095;53.090;6.692;2022-10-31T01:07:06;14.68;;;10.82;;
53751;SDS011;41095;53.090;6.692;2022-10-31T01:09:32;13.68;;;9.15;;
53751;SDS011;41095;53.090;6.692;2022-10-31T01:11:58;18.35;;;11.35;;
53751;SDS011;41095;53.090;6.692;2022-10-31T01:14:24;16.77;;;11.90;;
53751;SDS011;41095;53.090;6.692;2022-10-31T01:16:49;17.58;;;10.75;;
53751;SDS011;41095;53.090;6.692;2022-10-31T01:19:15;14.32;;;10.45;;
53751;SDS011;41095;53.090;6.692;2022-10-31T01:21:41;15.10;;;10.55;;
53751;SDS011;41095;53.090;6.692;2022-10-31T01:24:06;18.13;;;11.75;;
53751;SDS011;41095;53.090;6.692;2022-10-31T01:26:33;15.93;;;11.27;;
53751;SDS011;41095;53.090;6.692;2022-10-31T01:28:59;15.43;;;10.63;;
53751;SDS011;41095;53.090;6.692;2022-10-31T01:31:28;16.05;;;10.38;;
53751;SDS011;41095;53.090;6.692;2022-10-31T01:33:55;15.50;;;9.43;;
53751;SDS011;41095;53.090;6.692;2022-10-31T01:36:23;12.60;;;10.65;;
53751;SDS011;41095;53.090;6.692;2022-10-31T01:38:57;17.08;;;11.50;;
53751;SDS011;41095;53.090;6.692;2022-10-31T01:41:26;16.80;;;10.00;;
53751;SDS011;41095;53.090;6.692;2022-10-31T01:43:55;13.20;;;9.05;;
53751;SDS011;41095;53.090;6.692;2022-10-31T01:46:28;19.90;;;11.45;;
53751;SDS011;41095;53.090;6.692;2022-10-31T01:49:09;17.70;;;11.60;;
53751;SDS011;41095;53.090;6.692;2022-10-31T01:51:44;18.50;;;10.18;;
53751;SDS011;41095;53.090;6.692;2022-10-31T01:54:19;16.20;;;10.95;;
53751;SDS011;41095;53.090;6.692;2022-10-31T01:56:49;16.83;;;11.80;;
53751;SDS011;41095;53.090;6.692;2022-10-31T01:59:18;13.02;;;8.60;;
53751;SDS011;41095;53.090;6.692;2022-10-31T02:01:46;14.10;;;8.45;;
53751;SDS011;41095;53.090;6.692;2022-10-31T02:04:15;14.25;;;9.80;;
53751;SDS011;41095;53.090;6.692;2022-10-31T02:06:46;12.27;;;8.57;;
53751;SDS011;41095;53.090;6.692;2022-10-31T02:09:16;13.65;;;9.32;;
53751;SDS011;41095;53.090;6.692;2022-10-31T02:11:48;13.75;;;8.70;;
53751;SDS011;41095;53.090;6.692;2022-10-31T02:14:18;11.73;;;7.70;;
53751;SDS011;41095;53.090;6.692;2022-10-31T02:16:46;14.45;;;9.20;;
53751;SDS011;41095;53.090;6.692;2022-10-31T02:19:12;13.50;;;9.77;;
53751;SDS011;41095;53.090;6.692;2022-10-31T02:38:12;15.88;;;9.63;;
53751;SDS011;41095;53.090;6.692;2022-10-31T02:43:44;17.38;;;10.15;;
53751;SDS011;41095;53.090;6.692;2022-10-31T02:46:25;15.82;;;10.02;;
53751;SDS011;41095;53.090;6.692;2022-10-31T02:49:00;15.25;;;10.43;;
53751;SDS011;41095;53.090;6.692;2022-10-31T02:51:30;14.05;;;10.32;;
53751;SDS011;41095;53.090;6.692;2022-10-31T02:53:56;12.23;;;9.00;;
53751;SDS011;41095;53.090;6.692;2022-10-31T02:56:22;15.20;;;10.95;;
53751;SDS011;41095;53.090;6.692;2022-10-31T02:58:55;13.18;;;9.15;;
53751;SDS011;41095;53.090;6.692;2022-10-31T03:01:33;17.33;;;10.80;;
53751;SDS011;41095;53.090;6.692;2022-10-31T03:07:45;15.00;;;11.55;;
53751;SDS011;41095;53.090;6.692;2022-10-31T03:18:39;14.15;;;10.73;;
53751;SDS011;41095;53.090;6.692;2022-10-31T03:21:13;14.05;;;11.07;;
53751;SDS011;41095;53.090;6.692;2022-10-31T03:23:41;15.93;;;10.00;;
53751;SDS011;41095;53.090;6.692;2022-10-31T03:26:09;17.55;;;12.45;;
53751;SDS011;41095;53.090;6.692;2022-10-31T03:28:39;15.38;;;10.30;;
53751;SDS011;41095;53.090;6.692;2022-10-31T03:31:09;15.15;;;9.95;;
53751;SDS011;41095;53.090;6.692;2022-10-31T03:33:37;17.23;;;12.43;;
53751;SDS011;41095;53.090;6.692;2022-10-31T03:36:05;14.88;;;10.90;;
53751;SDS011;41095;53.090;6.692;2022-10-31T03:38:34;15.40;;;10.85;;
53751;SDS011;41095;53.090;6.692;2022-10-31T03:41:01;14.27;;;10.77;;
53751;SDS011;41095;53.090;6.692;2022-10-31T03:43:32;11.13;;;9.70;;
53751;SDS011;41095;53.090;6.692;2022-10-31T03:46:01;18.80;;;11.70;;
53751;SDS011;41095;53.090;6.692;2022-10-31T03:48:28;13.75;;;9.90;;
53751;SDS011;41095;53.090;6.692;2022-10-31T03:53:51;16.08;;;11.10;;
53751;SDS011;41095;53.090;6.692;2022-10-31T03:59:07;14.10;;;10.32;;
53751;SDS011;41095;53.090;6.692;2022-10-31T04:01:40;15.35;;;12.32;;
53751;SDS011;41095;53.090;6.692;2022-10-31T04:04:11;17.85;;;12.18;;
53751;SDS011;41095;53.090;6.692;2022-10-31T04:06:37;14.38;;;11.18;;
53751;SDS011;41095;53.090;6.692;2022-10-31T04:09:06;17.45;;;12.23;;
53751;SDS011;41095;53.090;6.692;2022-10-31T04:11:37;14.18;;;10.95;;
53751;SDS011;41095;53.090;6.692;2022-10-31T04:14:08;13.23;;;11.02;;
53751;SDS011;41095;53.090;6.692;2022-10-31T04:16:36;14.52;;;10.40;;
53751;SDS011;41095;53.090;6.692;2022-10-31T04:19:06;11.57;;;9.05;;
53751;SDS011;41095;53.090;6.692;2022-10-31T04:21:31;16.48;;;10.02;;
53751;SDS011;41095;53.090;6.692;2022-10-31T04:23:57;15.95;;;11.73;;
53751;SDS011;41095;53.090;6.692;2022-10-31T04:26:23;16.25;;;9.98;;
53751;SDS011;41095;53.090;6.692;2022-10-31T04:28:48;15.70;;;11.30;;
53751;SDS011;41095;53.090;6.692;2022-10-31T04:31:14;10.38;;;8.55;;
53751;SDS011;41095;53.090;6.692;2022-10-31T04:33:40;14.43;;;11.35;;
53751;SDS011;41095;53.090;6.692;2022-10-31T04:36:06;14.23;;;11.52;;
53751;SDS011;41095;53.090;6.692;2022-10-31T04:38:32;14.48;;;11.50;;
53751;SDS011;41095;53.090;6.692;2022-10-31T04:40:58;12.98;;;10.07;;
53751;SDS011;41095;53.090;6.692;2022-10-31T04:43:23;13.48;;;8.85;;
53751;SDS011;41095;53.090;6.692;2022-10-31T04:45:49;11.52;;;8.73;;
53751;SDS011;41095;53.090;6.692;2022-10-31T04:48:16;15.43;;;10.50;;
53751;SDS011;41095;53.090;6.692;2022-10-31T04:50:42;12.43;;;10.57;;
53751;SDS011;41095;53.090;6.692;2022-10-31T04:53:07;13.60;;;10.45;;
53751;SDS011;41095;53.090;6.692;2022-10-31T04:55:34;11.18;;;8.05;;
53751;SDS011;41095;53.090;6.692;2022-10-31T04:58:01;13.75;;;9.25;;
53751;SDS011;41095;53.090;6.692;2022-10-31T05:00:27;17.50;;;11.98;;
53751;SDS011;41095;53.090;6.692;2022-10-31T05:02:53;16.38;;;12.05;;
53751;SDS011;41095;53.090;6.692;2022-10-31T05:05:25;15.93;;;10.13;;
53751;SDS011;41095;53.090;6.692;2022-10-31T05:07:53;10.82;;;9.23;;
53751;SDS011;41095;53.090;6.692;2022-10-31T05:10:20;13.30;;;10.27;;
53751;SDS011;41095;53.090;6.692;2022-10-31T05:12:51;9.82;;;8.05;;
53751;SDS011;41095;53.090;6.692;2022-10-31T05:15:19;17.33;;;12.02;;
53751;SDS011;41095;53.090;6.692;2022-10-31T05:17:46;18.70;;;12.32;;
53751;SDS011;41095;53.090;6.692;2022-10-31T05:20:13;18.67;;;10.60;;
53751;SDS011;41095;53.090;6.692;2022-10-31T05:22:43;22.50;;;9.43;;
53751;SDS011;41095;53.090;6.692;2022-10-31T05:25:09;14.50;;;10.02;;
53751;SDS011;41095;53.090;6.692;2022-10-31T05:27:38;12.65;;;10.38;;
53751;SDS011;41095;53.090;6.692;2022-10-31T05:30:08;18.48;;;11.07;;
53751;SDS011;41095;53.090;6.692;2022-10-31T05:32:41;14.00;;;10.38;;
53751;SDS011;41095;53.090;6.692;2022-10-31T05:35:10;12.40;;;10.02;;
53751;SDS011;41095;53.090;6.692;2022-10-31T05:37:37;14.60;;;10.32;;
53751;SDS011;41095;53.090;6.692;2022-10-31T05:40:04;18.58;;;11.52;;
53751;SDS011;41095;53.090;6.692;2022-10-31T05:42:31;12.48;;;9.65;;
53751;SDS011;41095;53.090;6.692;2022-10-31T05:44:57;13.70;;;10.05;;
53751;SDS011;41095;53.090;6.692;2022-10-31T05:47:23;15.73;;;9.95;;
53751;SDS011;41095;53.090;6.692;2022-10-31T05:49:49;14.85;;;10.85;;
53751;SDS011;41095;53.090;6.692;2022-10-31T05:52:15;12.18;;;9.07;;
53751;SDS011;41095;53.090;6.692;2022-10-31T05:54:41;11.18;;;9.35;;
53751;SDS011;41095;53.090;6.692;2022-10-31T05:57:07;10.32;;;8.68;;
53751;SDS011;41095;53.090;6.692;2022-10-31T05:59:32;18.27;;;11.13;;
53751;SDS011;41095;53.090;6.692;2022-10-31T06:01:58;14.32;;;10.10;;
53751;SDS011;41095;53.090;6.692;2022-10-31T06:04:24;12.85;;;10.07;;
53751;SDS011;41095;53.090;6.692;2022-10-31T06:06:49;13.07;;;10.32;;
53751;SDS011;41095;53.090;6.692;2022-10-31T06:09:15;12.55;;;9.05;;
53751;SDS011;41095;53.090;6.692;2022-10-31T06:11:41;14.80;;;9.57;;
53751;SDS011;41095;53.090;6.692;2022-10-31T06:14:06;13.93;;;9.90;;
53751;SDS011;41095;53.090;6.692;2022-10-31T06:16:32;11.98;;;10.52;;
53751;SDS011;41095;53.090;6.692;2022-10-31T06:18:58;9.57;;;7.32;;
53751;SDS011;41095;53.090;6.692;2022-10-31T06:21:23;15.02;;;10.50;;
53751;SDS011;41095;53.090;6.692;2022-10-31T06:23:49;15.23;;;11.57;;
53751;SDS011;41095;53.090;6.692;2022-10-31T06:26:15;13.45;;;11.48;;
53751;SDS011;41095;53.090;6.692;2022-10-31T06:28:41;16.05;;;11.13;;
53751;SDS011;41095;53.090;6.692;2022-10-31T06:31:07;13.07;;;10.45;;
53751;SDS011;41095;53.090;6.692;2022-10-31T06:33:33;12.82;;;10.52;;
53751;SDS011;41095;53.090;6.692;2022-10-31T06:35:59;10.32;;;8.32;;
53751;SDS011;41095;53.090;6.692;2022-10-31T06:38:25;7.88;;;6.63;;
53751;SDS011;41095;53.090;6.692;2022-10-31T06:40:52;8.18;;;7.07;;
53751;SDS011;41095;53.090;6.692;2022-10-31T06:43:18;9.05;;;6.93;;
53751;SDS011;41095;53.090;6.692;2022-10-31T06:45:44;6.90;;;4.30;;
53751;SDS011;41095;53.090;6.692;2022-10-31T06:48:10;10.50;;;6.10;;
53751;SDS011;41095;53.090;6.692;2022-10-31T06:50:36;6.63;;;6.00;;
53751;SDS011;41095;53.090;6.692;2022-10-31T06:53:02;7.55;;;4.15;;
53751;SDS011;41095;53.090;6.692;2022-10-31T06:55:28;9.50;;;6.63;;
53751;SDS011;41095;53.090;6.692;2022-10-31T06:57:55;8.38;;;7.05;;
53751;SDS011;41095;53.090;6.692;2022-10-31T07:00:22;6.85;;;5.97;;
53751;SDS011;41095;53.090;6.692;2022-10-31T07:02:55;6.35;;;5.75;;
53751;SDS011;41095;53.090;6.692;2022-10-31T07:05:26;6.78;;;5.28;;
53751;SDS011;41095;53.090;6.692;2022-10-31T07:07:53;8.57;;;6.25;;
53751;SDS011;41095;53.090;6.692;2022-10-31T07:10:19;5.45;;;4.60;;
53751;SDS011;41095;53.090;6.692;2022-10-31T07:12:45;7.13;;;5.97;;
53751;SDS011;41095;53.090;6.692;2022-10-31T07:15:11;6.68;;;5.63;;
53751;SDS011;41095;53.090;6.692;2022-10-31T07:17:36;7.22;;;6.07;;
53751;SDS011;41095;53.090;6.692;2022-10-31T07:20:02;9.30;;;6.28;;
53751;SDS011;41095;53.090;6.692;2022-10-31T07:22:32;7.50;;;6.20;;
53751;SDS011;41095;53.090;6.692;2022-10-31T07:25:01;6.28;;;4.70;;
53751;SDS011;41095;53.090;6.692;2022-10-31T07:27:27;14.75;;;6.72;;
53751;SDS011;41095;53.090;6.692;2022-10-31T07:29:53;37.35;;;8.82;;
53751;SDS011;41095;53.090;6.692;2022-10-31T07:32:18;25.00;;;7.63;;
53751;SDS011;41095;53.090;6.692;2022-10-31T07:34:44;91.80;;;13.00;;
53751;SDS011;41095;53.090;6.692;2022-10-31T07:37:09;23.67;;;8.32;;
53751;SDS011;41095;53.090;6.692;2022-10-31T07:39:35;78.85;;;12.35;;
53751;SDS011;41095;53.090;6.692;2022-10-31T07:42:01;61.75;;;10.70;;
53751;SDS011;41095;53.090;6.692;2022-10-31T07:44:26;23.70;;;8.02;;
53751;SDS011;41095;53.090;6.692;2022-10-31T07:46:52;13.35;;;8.60;;
53751;SDS011;41095;53.090;6.692;2022-10-31T07:49:18;11.55;;;7.47;;
53751;SDS011;41095;53.090;6.692;2022-10-31T07:51:43;13.18;;;7.40;;
53751;SDS011;41095;53.090;6.692;2022-10-31T07:54:09;12.05;;;7.60;;
53751;SDS011;41095;53.090;6.692;2022-10-31T07:56:34;15.70;;;6.78;;
53751;SDS011;41095;53.090;6.692;2022-10-31T07:59:00;12.13;;;7.65;;
53751;SDS011;41095;53.090;6.692;2022-10-31T08:01:26;8.32;;;5.30;;
53751;SDS011;41095;53.090;6.692;2022-10-31T08:03:51;9.90;;;7.28;;
53751;SDS011;41095;53.090;6.692;2022-10-31T08:06:17;8.90;;;7.75;;
53751;SDS011;41095;53.090;6.692;2022-10-31T08:08:43;11.15;;;7.90;;
53751;SDS011;41095;53.090;6.692;2022-10-31T08:11:08;12.25;;;7.47;;
53751;SDS011;41095;53.090;6.692;2022-10-31T08:13:34;8.02;;;7.20;;
53751;SDS011;41095;53.090;6.692;2022-10-31T08:16:00;6.78;;;6.07;;
53751;SDS011;41095;53.090;6.692;2022-10-31T08:18:29;7.82;;;7.05;;
53751;SDS011;41095;53.090;6.692;2022-10-31T08:20:55;9.77;;;7.32;;
53751;SDS011;41095;53.090;6.692;2022-10-31T08:23:20;7.32;;;6.55;;
53751;SDS011;41095;53.090;6.692;2022-10-31T08:25:46;8.38;;;6.40;;
53751;SDS011;41095;53.090;6.692;2022-10-31T08:28:12;8.05;;;7.30;;
53751;SDS011;41095;53.090;6.692;2022-10-31T08:30:39;9.32;;;8.43;;
53751;SDS011;41095;53.090;6.692;2022-10-31T08:33:08;11.55;;;8.35;;
53751;SDS011;41095;53.090;6.692;2022-10-31T08:35:35;8.15;;;7.03;;
53751;SDS011;41095;53.090;6.692;2022-10-31T08:38:01;10.32;;;8.60;;
53751;SDS011;41095;53.090;6.692;2022-10-31T08:40:28;11.15;;;8.07;;
53751;SDS011;41095;53.090;6.692;2022-10-31T08:42:55;9.48;;;8.57;;
53751;SDS011;41095;53.090;6.692;2022-10-31T08:45:22;10.32;;;8.88;;
53751;SDS011;41095;53.090;6.692;2022-10-31T08:47:48;9.63;;;8.63;;
53751;SDS011;41095;53.090;6.692;2022-10-31T08:50:14;10.88;;;8.73;;
53751;SDS011;41095;53.090;6.692;2022-10-31T08:52:39;14.00;;;10.15;;
53751;SDS011;41095;53.090;6.692;2022-10-31T08:55:05;12.90;;;9.48;;
53751;SDS011;41095;53.090;6.692;2022-10-31T08:57:31;12.45;;;9.50;;
53751;SDS011;41095;53.090;6.692;2022-10-31T08:59:57;10.88;;;8.98;;
53751;SDS011;41095;53.090;6.692;2022-10-31T09:02:22;11.70;;;8.80;;
53751;SDS011;41095;53.090;6.692;2022-10-31T09:04:48;13.43;;;10.15;;
53751;SDS011;41095;53.090;6.692;2022-10-31T09:07:13;14.57;;;10.18;;
53751;SDS011;41095;53.090;6.692;2022-10-31T09:09:39;10.93;;;9.40;;
53751;SDS011;41095;53.090;6.692;2022-10-31T09:12:05;10.35;;;9.00;;
53751;SDS011;41095;53.090;6.692;2022-10-31T09:14:30;13.80;;;11.10;;
53751;SDS011;41095;53.090;6.692;2022-10-31T09:16:56;12.70;;;10.73;;
53751;SDS011;41095;53.090;6.692;2022-10-31T09:19:22;14.68;;;10.82;;
53751;SDS011;41095;53.090;6.692;2022-10-31T09:21:47;15.52;;;11.00;;
53751;SDS011;41095;53.090;6.692;2022-10-31T09:24:17;14.95;;;11.52;;
53751;SDS011;41095;53.090;6.692;2022-10-31T09:26:43;15.68;;;11.45;;
53751;SDS011;41095;53.090;6.692;2022-10-31T09:29:08;16.02;;;10.63;;
53751;SDS011;41095;53.090;6.692;2022-10-31T09:31:34;15.75;;;11.70;;
53751;SDS011;41095;53.090;6.692;2022-10-31T09:34:00;16.42;;;10.20;;
53751;SDS011;41095;53.090;6.692;2022-10-31T09:36:26;17.13;;;11.07;;
53751;SDS011;41095;53.090;6.692;2022-10-31T09:38:51;14.82;;;11.50;;
53751;SDS011;41095;53.090;6.692;2022-10-31T09:44:26;16.45;;;12.02;;
53751;SDS011;41095;53.090;6.692;2022-10-31T09:52:40;16.45;;;11.63;;
53751;SDS011;41095;53.090;6.692;2022-10-31T09:55:21;14.82;;;10.82;;
53751;SDS011;41095;53.090;6.692;2022-10-31T09:58:13;19.15;;;11.73;;
53751;SDS011;41095;53.090;6.692;2022-10-31T10:00:50;17.30;;;11.05;;
53751;SDS011;41095;53.090;6.692;2022-10-31T10:06:40;18.38;;;10.88;;
53751;SDS011;41095;53.090;6.692;2022-10-31T10:09:11;19.05;;;9.73;;
53751;SDS011;41095;53.090;6.692;2022-10-31T10:11:47;17.83;;;11.15;;
53751;SDS011;41095;53.090;6.692;2022-10-31T10:17:49;16.23;;;10.32;;
53751;SDS011;41095;53.090;6.692;2022-10-31T10:25:37;14.10;;;9.35;;
53751;SDS011;41095;53.090;6.692;2022-10-31T10:30:39;13.02;;;9.70;;
53751;SDS011;41095;53.090;6.692;2022-10-31T10:33:18;13.18;;;9.02;;
53751;SDS011;41095;53.090;6.692;2022-10-31T10:35:59;17.33;;;9.68;;
53751;SDS011;41095;53.090;6.692;2022-10-31T10:38:35;15.32;;;9.52;;
53751;SDS011;41095;53.090;6.692;2022-10-31T10:41:14;13.82;;;8.65;;
53751;SDS011;41095;53.090;6.692;2022-10-31T10:43:42;12.52;;;8.30;;
53751;SDS011;41095;53.090;6.692;2022-10-31T10:46:16;12.70;;;8.57;;
53751;SDS011;41095;53.090;6.692;2022-10-31T10:49:19;9.27;;;7.43;;
53751;SDS011;41095;53.090;6.692;2022-10-31T10:51:54;12.05;;;7.75;;
53751;SDS011;41095;53.090;6.692;2022-10-31T10:57:17;11.55;;;7.60;;
53751;SDS011;41095;53.090;6.692;2022-10-31T10:59:54;13.13;;;8.35;;
53751;SDS011;41095;53.090;6.692;2022-10-31T11:02:26;13.00;;;7.97;;
53751;SDS011;41095;53.090;6.692;2022-10-31T11:04:57;10.15;;;7.60;;
53751;SDS011;41095;53.090;6.692;2022-10-31T11:07:25;11.07;;;7.28;;
53751;SDS011;41095;53.090;6.692;2022-10-31T11:10:02;12.23;;;7.07;;
53751;SDS011;41095;53.090;6.692;2022-10-31T11:12:39;12.60;;;8.32;;
53751;SDS011;41095;53.090;6.692;2022-10-31T11:15:49;10.32;;;7.05;;
53751;SDS011;41095;53.090;6.692;2022-10-31T11:18:03;10.65;;;6.72;;
53751;SDS011;41095;53.090;6.692;2022-10-31T11:20:30;12.60;;;5.68;;
53751;SDS011;41095;53.090;6.692;2022-10-31T11:23:04;8.40;;;5.20;;
53751;SDS011;41095;53.090;6.692;2022-10-31T11:25:40;10.38;;;6.28;;
53751;SDS011;41095;53.090;6.692;2022-10-31T11:28:14;12.40;;;5.72;;
53751;SDS011;41095;53.090;6.692;2022-10-31T11:30:43;8.80;;;6.40;;
53751;SDS011;41095;53.090;6.692;2022-10-31T11:33:29;9.15;;;6.07;;
53751;SDS011;41095;53.090;6.692;2022-10-31T11:35:57;9.43;;;5.82;;
53751;SDS011;41095;53.090;6.692;2022-10-31T11:38:26;8.18;;;5.35;;
53751;SDS011;41095;53.090;6.692;2022-10-31T11:41:15;10.95;;;6.72;;
53751;SDS011;41095;53.090;6.692;2022-10-31T11:43:56;10.48;;;5.50;;
53751;SDS011;41095;53.090;6.692;2022-10-31T11:46:30;8.73;;;6.47;;
53751;SDS011;41095;53.090;6.692;2022-10-31T11:48:58;10.45;;;5.63;;
53751;SDS011;41095;53.090;6.692;2022-10-31T11:51:32;6.18;;;4.85;;
53751;SDS011;41095;53.090;6.692;2022-10-31T11:54:00;6.82;;;5.30;;
53751;SDS011;41095;53.090;6.692;2022-10-31T11:56:38;8.75;;;5.40;;
53751;SDS011;41095;53.090;6.692;2022-10-31T11:59:12;9.32;;;4.95;;
53751;SDS011;41095;53.090;6.692;2022-10-31T12:01:46;10.35;;;6.95;;
53751;SDS011;41095;53.090;6.692;2022-10-31T12:04:14;10.77;;;7.38;;
53751;SDS011;41095;53.090;6.692;2022-10-31T12:06:42;8.85;;;7.18;;
53751;SDS011;41095;53.090;6.692;2022-10-31T12:09:20;14.52;;;7.97;;
53751;SDS011;41095;53.090;6.692;2022-10-31T12:17:40;12.27;;;7.35;;
53751;SDS011;41095;53.090;6.692;2022-10-31T12:20:24;12.75;;;8.38;;
53751;SDS011;41095;53.090;6.692;2022-10-31T12:23:10;12.90;;;8.52;;
53751;SDS011;41095;53.090;6.692;2022-10-31T12:34:53;11.82;;;6.32;;
53751;SDS011;41095;53.090;6.692;2022-10-31T12:40:26;12.70;;;5.95;;
53751;SDS011;41095;53.090;6.692;2022-10-31T12:45:59;8.52;;;6.13;;
53751;SDS011;41095;53.090;6.692;2022-10-31T12:56:54;9.07;;;5.40;;
53751;SDS011;41095;53.090;6.692;2022-10-31T12:59:33;8.77;;;5.50;;
53751;SDS011;41095;53.090;6.692;2022-10-31T13:02:10;10.82;;;6.60;;
53751;SDS011;41095;53.090;6.692;2022-10-31T13:07:18;11.30;;;6.45;;
53751;SDS011;41095;53.090;6.692;2022-10-31T13:09:55;16.67;;;7.18;;
53751;SDS011;41095;53.090;6.692;2022-10-31T13:12:42;7.10;;;5.85;;
53751;SDS011;41095;53.090;6.692;2022-10-31T13:15:15;8.65;;;5.55;;
53751;SDS011;41095;53.090;6.692;2022-10-31T13:17:43;11.60;;;7.23;;
53751;SDS011;41095;53.090;6.692;2022-10-31T13:20:31;6.45;;;5.82;;
53751;SDS011;41095;53.090;6.692;2022-10-31T13:23:04;9.02;;;6.43;;
53751;SDS011;41095;53.090;6.692;2022-10-31T13:25:32;7.57;;;4.97;;
53751;SDS011;41095;53.090;6.692;2022-10-31T13:28:05;9.27;;;6.45;;
53751;SDS011;41095;53.090;6.692;2022-10-31T13:30:56;9.73;;;5.18;;
53751;SDS011;41095;53.090;6.692;2022-10-31T13:36:24;9.05;;;6.22;;
53751;SDS011;41095;53.090;6.692;2022-10-31T13:38:52;10.73;;;5.28;;
53751;SDS011;41095;53.090;6.692;2022-10-31T13:46:40;14.93;;;7.63;;
53751;SDS011;41095;53.090;6.692;2022-10-31T13:59:56;9.95;;;6.75;;
53751;SDS011;41095;53.090;6.692;2022-10-31T14:07:45;14.70;;;8.07;;
53751;SDS011;41095;53.090;6.692;2022-10-31T14:10:31;13.77;;;7.72;;
53751;SDS011;41095;53.090;6.692;2022-10-31T14:16:05;12.52;;;8.23;;
53751;SDS011;41095;53.090;6.692;2022-10-31T14:18:43;15.00;;;7.93;;
53751;SDS011;41095;53.090;6.692;2022-10-31T14:23:47;11.57;;;6.93;;
53751;SDS011;41095;53.090;6.692;2022-10-31T14:28:42;12.07;;;7.28;;
53751;SDS011;41095;53.090;6.692;2022-10-31T14:31:51;10.05;;;6.90;;
53751;SDS011;41095;53.090;6.692;2022-10-31T14:34:15;12.50;;;6.45;;
53751;SDS011;41095;53.090;6.692;2022-10-31T14:48:13;14.77;;;7.28;;
53751;SDS011;41095;53.090;6.692;2022-10-31T14:53:15;13.50;;;6.70;;
53751;SDS011;41095;53.090;6.692;2022-10-31T14:55:47;12.18;;;7.28;;
53751;SDS011;41095;53.090;6.692;2022-10-31T14:58:18;8.75;;;6.28;;
53751;SDS011;41095;53.090;6.692;2022-10-31T15:00:48;16.13;;;6.70;;
53751;SDS011;41095;53.090;6.692;2022-10-31T15:05:51;9.88;;;6.35;;
53751;SDS011;41095;53.090;6.692;2022-10-31T15:08:32;12.85;;;6.05;;
53751;SDS011;41095;53.090;6.692;2022-10-31T15:10:58;12.73;;;7.32;;
53751;SDS011;41095;53.090;6.692;2022-10-31T15:13:28;7.75;;;5.28;;
53751;SDS011;41095;53.090;6.692;2022-10-31T15:15:54;8.45;;;6.50;;
53751;SDS011;41095;53.090;6.692;2022-10-31T15:18:22;9.38;;;5.75;;
53751;SDS011;41095;53.090;6.692;2022-10-31T15:20:50;12.20;;;5.50;;
53751;SDS011;41095;53.090;6.692;2022-10-31T15:23:20;9.23;;;4.80;;
53751;SDS011;41095;53.090;6.692;2022-10-31T15:25:49;7.93;;;5.30;;
53751;SDS011;41095;53.090;6.692;2022-10-31T15:28:16;9.23;;;5.10;;
53751;SDS011;41095;53.090;6.692;2022-10-31T15:30:51;11.57;;;5.78;;
53751;SDS011;41095;53.090;6.692;2022-10-31T15:33:20;9.85;;;5.45;;
53751;SDS011;41095;53.090;6.692;2022-10-31T15:36:00;8.55;;;5.15;;
53751;SDS011;41095;53.090;6.692;2022-10-31T15:38:27;10.88;;;5.32;;
53751;SDS011;41095;53.090;6.692;2022-10-31T15:41:01;8.48;;;5.25;;
53751;SDS011;41095;53.090;6.692;2022-10-31T15:43:32;8.88;;;3.97;;
53751;SDS011;41095;53.090;6.692;2022-10-31T15:46:01;6.40;;;3.75;;
53751;SDS011;41095;53.090;6.692;2022-10-31T15:48:27;8.00;;;4.10;;
53751;SDS011;41095;53.090;6.692;2022-10-31T15:50:57;7.45;;;4.93;;
53751;SDS011;41095;53.090;6.692;2022-10-31T15:55:57;10.65;;;3.78;;
53751;SDS011;41095;53.090;6.692;2022-10-31T15:58:26;3.67;;;3.00;;
53751;SDS011;41095;53.090;6.692;2022-10-31T16:01:00;9.07;;;3.72;;
53751;SDS011;41095;53.090;6.692;2022-10-31T16:03:32;7.35;;;3.35;;
53751;SDS011;41095;53.090;6.692;2022-10-31T16:05:59;6.57;;;3.88;;
53751;SDS011;41095;53.090;6.692;2022-10-31T16:10:59;7.65;;;4.03;;
53751;SDS011;41095;53.090;6.692;2022-10-31T16:16:45;5.10;;;3.65;;
53751;SDS011;41095;53.090;6.692;2022-10-31T16:21:46;6.03;;;4.68;;
53751;SDS011;41095;53.090;6.692;2022-10-31T16:24:16;9.57;;;4.68;;
53751;SDS011;41095;53.090;6.692;2022-10-31T16:27:00;7.78;;;5.63;;
53751;SDS011;41095;53.090;6.692;2022-10-31T16:29:33;6.45;;;5.03;;
53751;SDS011;41095;53.090;6.692;2022-10-31T16:32:03;8.63;;;4.93;;
53751;SDS011;41095;53.090;6.692;2022-10-31T16:34:28;11.25;;;4.85;;
53751;SDS011;41095;53.090;6.692;2022-10-31T16:36:54;12.30;;;5.78;;
53751;SDS011;41095;53.090;6.692;2022-10-31T16:39:20;9.80;;;5.55;;
53751;SDS011;41095;53.090;6.692;2022-10-31T16:41:46;8.80;;;5.55;;
53751;SDS011;41095;53.090;6.692;2022-10-31T16:44:18;7.05;;;5.32;;
53751;SDS011;41095;53.090;6.692;2022-10-31T16:46:47;18.23;;;7.07;;
53751;SDS011;41095;53.090;6.692;2022-10-31T16:49:13;13.60;;;8.10;;
53751;SDS011;41095;53.090;6.692;2022-10-31T16:51:40;9.70;;;7.03;;
53751;SDS011;41095;53.090;6.692;2022-10-31T16:54:06;11.45;;;8.60;;
53751;SDS011;41095;53.090;6.692;2022-10-31T16:56:34;12.60;;;7.65;;
53751;SDS011;41095;53.090;6.692;2022-10-31T16:59:02;14.77;;;9.15;;
53751;SDS011;41095;53.090;6.692;2022-10-31T17:01:29;13.50;;;8.90;;
53751;SDS011;41095;53.090;6.692;2022-10-31T17:03:56;11.80;;;9.20;;
53751;SDS011;41095;53.090;6.692;2022-10-31T17:06:21;12.93;;;8.70;;
53751;SDS011;41095;53.090;6.692;2022-10-31T17:08:47;13.73;;;9.32;;
53751;SDS011;41095;53.090;6.692;2022-10-31T17:11:15;10.75;;;8.70;;
53751;SDS011;41095;53.090;6.692;2022-10-31T17:13:43;14.85;;;10.43;;
53751;SDS011;41095;53.090;6.692;2022-10-31T17:16:09;13.52;;;9.63;;
53751;SDS011;41095;53.090;6.692;2022-10-31T17:18:38;15.38;;;10.00;;
53751;SDS011;41095;53.090;6.692;2022-10-31T17:21:04;15.55;;;10.88;;
53751;SDS011;41095;53.090;6.692;2022-10-31T17:23:32;16.00;;;11.00;;